Chattanooga, TN

9:04 PM EST on January 20, 2017 (GMT -0500)
Southside Village | | Change Station

Elev 673 ft 35.03 °N, 85.30 °W | Updated 22 seconds ago

Partly Cloudy
Partly Cloudy
62.1 °F
Feels Like 62.1 °F
N
0.0
Wind Variable Wind from South
Gusts 0.0 mph

Today
High -- | Low -- °F
--% Chance of Precip.
Yesterday
High -- | Low -- °F
Precip. -- in
Pressure 29.82 in
Visibility 10.0 miles
Clouds Few 5500 ft
Mostly Cloudy 25000 ft
Dew Point 54 °F
Humidity 74%
Rainfall 0.85 in
Snow Depth Not available.
7:47 AM 5:58 PM
Last Quarter, 39% visible
METAR KCHA 210153Z 00000KT 10SM FEW055 BKN250 13/11 A2983 RMK AO2 SLP098 T01330111
Pressure 29.82 in
Visibility 10.0 miles
Clouds Few 5500 ft
Mostly Cloudy 25000 ft
Dew Point 54 °F
Humidity 74%
Rainfall 0.85 in
Snow Depth Not available.
7:47 AM 5:58 PM
Last Quarter, 39% visible
METAR KCHA 210153Z 00000KT 10SM FEW055 BKN250 13/11 A2983 RMK AO2 SLP098 T01330111

Get Your Daily Forecast Email!

Thanks for signing up!

Be on the lookout for a verification email in your inbox.

You'll start receiving the daily forecast at 8 AM.

×

10-Day Weather Forecast

Almanac

Astronomy

Jan. 20, 2017 Rise Set
Actual Time
Civil Twilight
Nautical Twilight
Astronomical Twilight
Moon
Length of Visible Light
Length of Day
Tomorrow will be .
, % of the Moon is Illuminated

Today's Extremes

State Highs State Lows

Community

WunderPhotos

Upload Photos

1,962,540 photos uploaded!

WunderBlog® & News

Nearby

Air Quality

  Air Quality AQ Index Pollutant
Not available.

Snow Depth

Station Depth Elevation

Earthquake Activity

City Distance Mag. Time & Date
Minimum magnitude displayed is 2.5.

Coastal Water Temperatures

Place Temperature

Stations

Nearby Weather Stations

Station Location Temp. Windchill Dew Point Humidity Wind Precip. Elev Updated Type
                   

Watches & Warnings

There are currently no watches in effect.